Time;durP1;ratioP1;P1;durP2;ratioP2;P2;SDS_P1;SDS_P2;PMS_P1;PMS_P2;Temp;Humidity;BMP_temperature;BMP_pressure;BME280_temperature;BME280_humidity;BME280_pressure;Samples;Min_cycle;Max_cycle;Signal;HPM_P1;HPM_P2
2021/12/07 00:01:45;;;;;;;24.20;15.27;;;;;;;;;;5074541;28;20434;-87
2021/12/07 00:04:11;;;;;;;28.60;16.23;;;0.30;99.90;;;;;;5074590;28;20421;-90
2021/12/07 00:06:38;;;;;;;22.90;15.67;;;0.20;99.90;;;;;;5075368;28;20480;-89
2021/12/07 00:09:09;;;;;;;25.53;16.07;;;0.20;99.90;;;;;;5073411;28;20175;-89
2021/12/07 00:11:37;;;;;;;29.77;16.30;;;0.20;99.90;;;;;;5075083;28;20421;-85
2021/12/07 00:14:11;;;;;;;27.97;15.70;;;0.20;99.90;;;;;;5075025;28;20410;-85
2021/12/07 00:16:38;;;;;;;26.97;15.97;;;;;;;;;;5073597;28;20428;-91
2021/12/07 00:19:04;;;;;;;23.93;14.50;;;;;;;;;;5073623;28;20933;-87
2021/12/07 00:21:30;;;;;;;24.67;14.43;;;;;;;;;;5075409;28;20429;-86
2021/12/07 00:23:56;;;;;;;31.83;15.47;;;;;;;;;;5076445;28;20419;-85
2021/12/07 00:26:22;;;;;;;27.47;15.87;;;;;;;;;;5074634;28;20551;-85
2021/12/07 00:28:50;;;;;;;30.60;15.00;;;;;;;;;;5081375;28;20865;-85
2021/12/07 00:31:25;;;;;;;22.13;13.70;;;;;;;;;;5093536;28;20457;-85
2021/12/07 00:34:17;;;;;;;22.13;15.43;;;;;;;;;;5087959;28;20462;-87
2021/12/07 00:36:44;;;;;;;24.67;14.27;;;;;;;;;;5075028;28;20483;-86
2021/12/07 00:39:10;;;;;;;32.20;17.47;;;;;;;;;;5073983;28;21039;-90
2021/12/07 00:41:37;;;;;;;29.87;19.30;;;;;;;;;;5076059;28;20421;-87
2021/12/07 00:44:03;;;;;;;30.80;17.87;;;;;;;;;;5075066;28;20455;-86
2021/12/07 00:46:30;;;;;;;29.00;15.00;;;;;;;;;;5074031;28;21010;-87
2021/12/07 00:48:56;;;;;;;34.60;16.90;;;;;;;;;;5073061;28;20422;-87
2021/12/07 00:51:23;;;;;;;29.80;16.23;;;;;;;;;;5073224;28;20457;-89
2021/12/07 00:53:49;;;;;;;30.60;17.00;;;;;;;;;;5079884;28;20413;-90
2021/12/07 00:56:16;;;;;;;31.17;18.50;;;;;;;;;;5092992;28;20425;-88
2021/12/07 00:58:42;;;;;;;22.90;15.70;;;;;;;;;;5094703;28;20487;-88
2021/12/07 01:01:10;;;;;;;21.07;13.40;;;;;;;;;;5093160;28;20444;-87
2021/12/07 01:03:36;;;;;;;29.77;15.60;;;;;;;;;;5093145;28;20439;-89
2021/12/07 01:25:06;;;;;;;29.47;15.67;;;;;;;;;;5083997;28;20414;-93
2021/12/07 01:27:32;;;;;;;30.27;17.20;;;;;;;;;;5085363;28;20481;-92
2021/12/07 01:30:17;;;;;;;18.73;13.60;;;-0.10;99.90;;;;;;5086095;28;20787;-92
2021/12/07 01:38:19;;;;;;;30.53;16.90;;;0.10;99.90;;;;;;5074286;28;20503;-87
2021/12/07 01:40:59;;;;;;;35.83;16.70;;;0.20;99.90;;;;;;5073366;28;20446;-87
2021/12/07 01:43:53;;;;;;;35.63;17.97;;;0.10;99.90;;;;;;5072900;28;20999;-88
2021/12/07 01:59:33;;;;;;;30.27;16.13;;;0.10;99.90;;;;;;5074302;28;20760;-88
2021/12/07 02:01:59;;;;;;;27.60;15.70;;;0.10;99.90;;;;;;5072615;28;20447;-88
2021/12/07 02:04:25;;;;;;;27.67;17.10;;;-0.10;99.90;;;;;;5072406;28;20420;-89
2021/12/07 02:06:50;;;;;;;27.63;16.30;;;0.10;99.90;;;;;;5076525;28;20567;-87
2021/12/07 02:09:16;;;;;;;37.00;19.93;;;0.10;99.90;;;;;;5092219;28;20273;-87
2021/12/07 02:11:48;;;;;;;32.53;19.57;;;0.10;99.90;;;;;;5092595;28;20186;-87
2021/12/07 02:14:16;;;;;;;32.50;17.37;;;0.10;99.90;;;;;;5092620;28;20259;-88
2021/12/07 02:16:51;;;;;;;30.80;16.57;;;0.10;99.90;;;;;;5093901;28;20485;-88
2021/12/07 02:19:17;;;;;;;37.23;17.43;;;0.20;99.90;;;;;;5092701;28;20474;-88
2021/12/07 02:21:43;;;;;;;28.77;15.17;;;0.10;99.90;;;;;;5092691;28;20425;-87
2021/12/07 02:24:08;;;;;;;33.27;17.00;;;-0.10;99.90;;;;;;5093369;28;20167;-88
2021/12/07 02:26:34;;;;;;;27.43;16.00;;;0.10;99.90;;;;;;5092531;28;20471;-87
2021/12/07 02:29:01;;;;;;;30.93;20.13;;;0.00;99.90;;;;;;5092452;28;20217;-89
2021/12/07 02:31:26;;;;;;;30.97;19.27;;;0.10;99.90;;;;;;5092556;28;20419;-90
2021/12/07 02:33:54;;;;;;;33.63;18.43;;;0.00;99.90;;;;;;5093449;28;20946;-88
2021/12/07 02:36:19;;;;;;;35.20;18.30;;;0.70;99.90;;;;;;5092165;28;20180;-87
2021/12/07 02:38:45;;;;;;;35.93;19.30;;;0.00;99.90;;;;;;5091287;28;20981;-89
2021/12/07 02:41:11;;;;;;;35.60;19.47;;;-0.10;99.90;;;;;;5093470;28;20261;-89
2021/12/07 02:43:37;;;;;;;28.80;17.27;;;0.00;99.90;;;;;;5093212;28;20254;-87
2021/12/07 02:46:03;;;;;;;33.67;19.20;;;0.10;99.90;;;;;;5093085;28;20814;-88
2021/12/07 02:48:28;;;;;;;39.80;21.00;;;0.10;99.90;;;;;;5093337;28;20654;-87
2021/12/07 02:50:54;;;;;;;36.70;18.40;;;-0.40;99.90;;;;;;5093278;28;20440;-88
2021/12/07 02:53:24;;;;;;;30.47;16.63;;;0.10;99.90;;;;;;5093148;28;20221;-87
2021/12/07 02:55:50;;;;;;;29.70;16.80;;;0.00;99.90;;;;;;5091722;28;20753;-87
2021/12/07 02:58:17;;;;;;;35.93;18.23;;;0.10;99.90;;;;;;5094401;28;20516;-88
2021/12/07 03:00:49;;;;;;;28.90;16.87;;;-0.30;99.90;;;;;;5097005;28;20439;-87
2021/12/07 03:03:16;;;;;;;25.90;16.97;;;0.10;99.90;;;;;;5096826;28;20399;-87
2021/12/07 03:27:38;;;;;;;29.20;18.20;;;0.30;99.90;;;;;;5096485;28;20526;-88
2021/12/07 03:30:06;;;;;;;33.83;19.27;;;0.30;99.90;;;;;;5096472;28;20724;-88
2021/12/07 03:32:32;;;;;;;32.00;17.57;;;0.40;99.90;;;;;;5096770;28;20172;-87
2021/12/07 03:34:57;;;;;;;32.07;19.60;;;0.30;99.90;;;;;;5096000;28;20414;-87
2021/12/07 03:37:23;;;;;;;33.50;20.07;;;0.30;99.90;;;;;;5095006;28;20170;-88
2021/12/07 03:39:49;;;;;;;36.10;20.50;;;0.30;99.90;;;;;;5094949;28;20285;-88
2021/12/07 03:42:14;;;;;;;32.53;18.87;;;0.30;99.90;;;;;;5095390;28;20183;-90
2021/12/07 03:44:40;;;;;;;26.93;16.13;;;0.30;99.90;;;;;;5096026;28;20186;-88
2021/12/07 03:47:05;;;;;;;36.10;18.87;;;0.40;99.90;;;;;;5097014;28;20221;-89
2021/12/07 03:49:31;;;;;;;31.97;18.30;;;0.40;99.90;;;;;;5095288;28;20588;-89
2021/12/07 03:51:57;;;;;;;29.47;15.87;;;0.40;99.90;;;;;;5095265;28;20175;-89
2021/12/07 03:54:22;;;;;;;29.00;16.90;;;0.40;99.90;;;;;;5094942;28;20192;-91
2021/12/07 03:56:48;;;;;;;33.03;18.83;;;0.30;99.90;;;;;;5095604;28;20261;-88
2021/12/07 03:59:14;;;;;;;33.10;17.80;;;0.70;99.90;;;;;;5096450;28;20179;-88
2021/12/07 04:01:39;;;;;;;28.57;15.70;;;0.70;99.90;;;;;;5095710;28;20175;-90
2021/12/07 04:04:05;;;;;;;33.87;19.63;;;0.40;99.90;;;;;;5095467;28;20228;-90
2021/12/07 04:06:31;;;;;;;33.00;16.33;;;0.20;99.90;;;;;;5096311;28;20579;-89
2021/12/07 04:08:56;;;;;;;32.77;16.67;;;0.40;99.90;;;;;;5093962;28;20174;-87
2021/12/07 04:11:22;;;;;;;37.80;18.37;;;0.40;99.90;;;;;;5095118;28;20176;-89
2021/12/07 04:13:48;;;;;;;27.80;17.30;;;-0.10;99.90;;;;;;5096353;28;20276;-89
2021/12/07 04:16:15;;;;;;;40.23;21.30;;;0.40;99.90;;;;;;5096197;28;20251;-89
2021/12/07 04:18:41;;;;;;;25.97;15.60;;;0.40;99.90;;;;;;5096050;28;20192;-88
2021/12/07 04:21:06;;;;;;;31.53;17.27;;;0.50;99.90;;;;;;5095861;28;20442;-88
2021/12/07 04:23:34;;;;;;;30.37;16.77;;;0.30;99.90;;;;;;5095431;28;20192;-89
2021/12/07 04:26:03;;;;;;;35.37;17.60;;;0.40;99.90;;;;;;5094597;28;20208;-88
2021/12/07 04:28:28;;;;;;;25.43;16.00;;;2.10;99.90;;;;;;5095407;28;20814;-88
2021/12/07 04:30:54;;;;;;;31.77;16.63;;;0.60;99.90;;;;;;5094986;28;20478;-88
2021/12/07 04:33:20;;;;;;;26.80;15.10;;;0.40;99.90;;;;;;5095709;28;20606;-88
2021/12/07 04:35:49;;;;;;;30.57;17.47;;;0.40;99.90;;;;;;5095783;28;20175;-88
2021/12/07 04:38:16;;;;;;;32.77;16.70;;;0.40;99.90;;;;;;5095279;28;20273;-88
2021/12/07 04:40:43;;;;;;;32.30;19.07;;;0.40;99.90;;;;;;5095693;28;20418;-88
2021/12/07 04:43:08;;;;;;;33.67;19.07;;;0.50;99.90;;;;;;5094156;28;20413;-88
2021/12/07 04:59:04;;;;;;;27.07;16.00;;;0.70;99.90;;;;;;5095810;28;20475;-88
2021/12/07 05:01:31;;;;;;;25.43;16.00;;;0.50;99.90;;;;;;5093962;28;20406;-89
2021/12/07 05:03:59;;;;;;;29.80;18.57;;;0.40;99.90;;;;;;5095150;28;20416;-89
2021/12/07 05:06:29;;;;;;;35.10;19.10;;;0.50;99.90;;;;;;5094869;28;20540;-88
2021/12/07 05:08:59;;;;;;;29.40;16.93;;;0.40;99.90;;;;;;5094718;28;20411;-88
2021/12/07 05:14:33;;;;;;;30.60;16.57;;;0.40;99.90;;;;;;5054746;28;20430;-90
2021/12/07 05:17:28;;;;;;;27.33;15.70;;;0.50;99.90;;;;;;5037351;28;20416;-89
2021/12/07 05:38:55;;;;;;;27.07;16.80;;;0.50;99.90;;;;;;5094451;28;20497;-89
2021/12/07 05:41:23;;;;;;;29.90;15.50;;;0.30;99.90;;;;;;5093393;28;20796;-88
2021/12/07 05:43:49;;;;;;;27.20;15.57;;;0.60;99.90;;;;;;5093205;28;20215;-87
2021/12/07 05:46:14;;;;;;;29.10;15.57;;;0.40;99.90;;;;;;5093317;28;20992;-88
2021/12/07 05:48:41;;;;;;;24.17;14.20;;;0.50;99.90;;;;;;5094661;28;20533;-90
2021/12/07 05:51:07;;;;;;;24.40;16.07;;;0.60;99.90;;;;;;5093545;28;20200;-88
2021/12/07 05:53:34;;;;;;;20.33;12.30;;;0.40;99.90;;;;;;5093067;28;20504;-89
2021/12/07 05:56:00;;;;;;;30.80;17.03;;;0.50;99.90;;;;;;5092923;28;20179;-90
2021/12/07 05:58:26;;;;;;;29.80;16.80;;;0.50;99.90;;;;;;5094428;28;20479;-90
2021/12/07 06:00:57;;;;;;;26.67;15.47;;;0.50;99.90;;;;;;5093282;28;20189;-90
2021/12/07 06:03:24;;;;;;;31.20;17.17;;;0.60;99.90;;;;;;5093055;28;20263;-88
2021/12/07 06:05:50;;;;;;;21.27;12.30;;;0.60;99.90;;;;;;5092956;28;20454;-89
2021/12/07 06:08:16;;;;;;;28.77;15.60;;;0.50;99.90;;;;;;5092707;28;20436;-88
2021/12/07 06:10:41;;;;;;;34.33;15.80;;;0.50;99.90;;;;;;5092400;28;20449;-88
2021/12/07 06:13:07;;;;;;;19.87;9.97;;;0.50;99.90;;;;;;5092565;28;20187;-87
2021/12/07 06:15:37;;;;;;;24.90;14.30;;;0.50;99.90;;;;;;5092632;28;20178;-87
2021/12/07 06:18:04;;;;;;;27.73;15.23;;;0.60;99.90;;;;;;5093872;28;20169;-88
2021/12/07 06:20:29;;;;;;;33.90;18.30;;;0.50;99.90;;;;;;5092298;28;20418;-88
2021/12/07 06:22:55;;;;;;;27.43;15.63;;;0.50;99.90;;;;;;5093506;28;20546;-88
2021/12/07 06:25:21;;;;;;;28.77;15.63;;;0.50;99.90;;;;;;5093529;28;20414;-87
2021/12/07 06:27:46;;;;;;;24.10;16.03;;;0.40;99.90;;;;;;5092017;28;20565;-86
2021/12/07 06:30:13;;;;;;;27.83;14.97;;;0.40;99.90;;;;;;5092227;28;20258;-88
2021/12/07 06:32:39;;;;;;;30.23;15.77;;;0.50;99.90;;;;;;5093920;28;20654;-88
2021/12/07 06:35:07;;;;;;;18.50;11.60;;;0.00;99.90;;;;;;5097790;28;20459;-88
2021/12/07 06:37:33;;;;;;;24.20;14.77;;;0.50;99.90;;;;;;5097776;28;20782;-88
2021/12/07 06:39:58;;;;;;;22.17;14.13;;;0.50;99.90;;;;;;5097347;28;20436;-89
2021/12/07 06:42:24;;;;;;;25.40;13.03;;;0.50;99.90;;;;;;5096829;28;20428;-88
2021/12/07 06:44:50;;;;;;;24.00;13.97;;;0.50;99.90;;;;;;5096666;28;20179;-89
2021/12/07 06:47:15;;;;;;;29.87;15.83;;;0.10;99.90;;;;;;5097586;28;20637;-89
2021/12/07 06:49:41;;;;;;;26.87;15.70;;;0.50;99.90;;;;;;5096390;28;20176;-87
2021/12/07 06:52:07;;;;;;;29.37;16.90;;;0.50;99.90;;;;;;5096441;28;20183;-88
2021/12/07 06:54:35;;;;;;;28.00;13.20;;;0.50;99.90;;;;;;5096091;28;20952;-90
2021/12/07 06:57:01;;;;;;;25.00;14.13;;;0.80;99.90;;;;;;5096506;28;20428;-87
2021/12/07 06:59:26;;;;;;;29.40;16.30;;;0.50;99.90;;;;;;5097810;28;20408;-87
2021/12/07 07:01:52;;;;;;;26.47;15.57;;;0.50;99.90;;;;;;5097961;28;20172;-88
2021/12/07 07:04:18;;;;;;;24.67;15.00;;;0.50;99.90;;;;;;5097087;28;20176;-89
2021/12/07 07:06:44;;;;;;;22.20;13.73;;;0.50;99.90;;;;;;5096553;28;20297;-87
2021/12/07 07:09:10;;;;;;;30.50;16.23;;;0.50;99.90;;;;;;5095751;28;20176;-86
2021/12/07 07:11:36;;;;;;;30.87;14.30;;;0.50;99.90;;;;;;5097281;28;20462;-90
2021/12/07 07:14:02;;;;;;;25.40;13.87;;;0.50;99.90;;;;;;5097203;28;20405;-89
2021/12/07 07:16:28;;;;;;;28.03;16.50;;;0.50;99.90;;;;;;5095905;28;20167;-87
2021/12/07 07:18:55;;;;;;;22.83;14.27;;;0.50;99.90;;;;;;5095664;28;20416;-88
2021/12/07 07:21:21;;;;;;;24.60;14.40;;;0.50;99.90;;;;;;5096909;28;20520;-88
2021/12/07 07:23:46;;;;;;;31.73;16.13;;;0.50;99.90;;;;;;5095574;28;20455;-88
2021/12/07 07:26:12;;;;;;;26.87;14.63;;;0.50;99.90;;;;;;5095579;28;20220;-88
2021/12/07 07:28:38;;;;;;;24.40;14.60;;;0.50;99.90;;;;;;5095518;28;20175;-88
2021/12/07 07:31:07;;;;;;;28.57;15.53;;;0.50;99.90;;;;;;5096570;28;20176;-88
2021/12/07 07:33:33;;;;;;;31.07;15.80;;;0.50;99.90;;;;;;5096724;28;20164;-87
2021/12/07 07:35:59;;;;;;;27.83;15.13;;;0.60;99.90;;;;;;5096551;28;20715;-88
2021/12/07 07:38:24;;;;;;;24.67;16.40;;;0.60;99.90;;;;;;5094816;28;20220;-88
2021/12/07 07:40:50;;;;;;;32.30;18.00;;;0.60;99.90;;;;;;5095387;28;20172;-87
2021/12/07 07:43:17;;;;;;;25.87;16.40;;;0.60;99.90;;;;;;5096303;28;20684;-88
2021/12/07 07:45:45;;;;;;;32.43;17.30;;;1.50;99.90;;;;;;5096273;28;20178;-87
2021/12/07 07:48:11;;;;;;;26.23;15.67;;;0.60;99.90;;;;;;5095892;28;20479;-87
2021/12/07 07:50:37;;;;;;;29.90;17.50;;;0.60;99.90;;;;;;5094491;28;20430;-87
2021/12/07 07:53:03;;;;;;;29.13;17.83;;;0.60;99.90;;;;;;5094435;28;20417;-87
2021/12/07 07:55:29;;;;;;;30.03;16.30;;;0.30;99.90;;;;;;5096317;28;20156;-89
2021/12/07 07:57:54;;;;;;;32.73;15.93;;;0.60;99.90;;;;;;5095145;28;20414;-87
2021/12/07 08:00:21;;;;;;;27.50;14.73;;;0.60;99.90;;;;;;5096711;28;20166;-89
2021/12/07 08:02:48;;;;;;;27.10;16.77;;;0.60;99.90;;;;;;5096349;28;20193;-86
2021/12/07 08:05:15;;;;;;;36.20;17.93;;;0.40;99.90;;;;;;5094146;28;20424;-86
2021/12/07 08:07:46;;;;;;;29.73;18.13;;;0.60;99.90;;;;;;5095631;28;20862;-88
2021/12/07 08:10:13;;;;;;;29.30;15.03;;;0.60;99.90;;;;;;5094325;28;20417;-87
2021/12/07 08:12:39;;;;;;;31.13;17.40;;;0.60;99.90;;;;;;5095583;28;20410;-87
2021/12/07 08:15:05;;;;;;;34.33;17.57;;;0.60;99.90;;;;;;5095596;28;20440;-87
2021/12/07 08:17:31;;;;;;;22.10;15.13;;;0.70;99.90;;;;;;5094102;28;20603;-87
2021/12/07 08:19:57;;;;;;;35.83;18.53;;;0.70;99.90;;;;;;5095274;28;20452;-86
2021/12/07 08:22:22;;;;;;;28.07;15.43;;;0.60;99.90;;;;;;5095034;28;20183;-86
2021/12/07 08:24:49;;;;;;;26.63;17.00;;;0.50;99.90;;;;;;5094961;28;20176;-87
2021/12/07 08:27:15;;;;;;;32.60;17.87;;;0.70;99.90;;;;;;5093903;28;20236;-88
2021/12/07 08:29:41;;;;;;;27.27;16.63;;;0.70;99.90;;;;;;5094040;28;20414;-87
2021/12/07 08:32:07;;;;;;;28.43;17.07;;;0.70;99.90;;;;;;5095228;28;20863;-87
2021/12/07 08:34:32;;;;;;;29.40;16.80;;;0.70;99.90;;;;;;5094093;28;20168;-88
2021/12/07 08:36:58;;;;;;;30.23;15.67;;;0.80;99.90;;;;;;5094416;28;20470;-88
2021/12/07 08:39:23;;;;;;;32.40;14.57;;;0.80;99.90;;;;;;5094666;28;20222;-87
2021/12/07 08:41:49;;;;;;;30.77;16.30;;;0.70;99.90;;;;;;5093496;28;20769;-87
2021/12/07 08:44:15;;;;;;;31.30;17.57;;;0.70;99.90;;;;;;5094836;28;20689;-87
2021/12/07 08:46:40;;;;;;;28.53;16.03;;;0.70;99.90;;;;;;5094871;28;20251;-87
2021/12/07 08:49:06;;;;;;;37.10;19.80;;;0.60;99.90;;;;;;5094690;28;20203;-87
2021/12/07 08:51:32;;;;;;;31.30;17.90;;;0.60;99.90;;;;;;5093679;28;20193;-87
2021/12/07 08:54:22;;;;;;;33.90;19.53;;;0.60;99.90;;;;;;5093167;28;20410;-86
2021/12/07 08:59:42;;;;;;;26.87;14.30;;;0.60;99.90;;;;;;5094807;28;20751;-88
2021/12/07 09:02:08;;;;;;;27.00;16.73;;;0.60;99.90;;;;;;5093505;28;20455;-86
2021/12/07 09:04:35;;;;;;;35.70;16.80;;;0.70;99.90;;;;;;5084691;28;20817;-87
2021/12/07 09:07:01;;;;;;;20.90;12.17;;;0.40;99.90;;;;;;5087772;28;20738;-86
2021/12/07 09:09:28;;;;;;;26.77;15.30;;;0.70;99.90;;;;;;5092881;28;20464;-87
2021/12/07 09:11:55;;;;;;;29.33;15.63;;;0.80;99.90;;;;;;5093043;28;20203;-87
2021/12/07 09:14:22;;;;;;;28.87;17.33;;;0.80;99.90;;;;;;5094586;28;20406;-85
2021/12/07 09:16:48;;;;;;;19.80;12.50;;;1.00;99.90;;;;;;5094224;28;20415;-83
2021/12/07 09:19:13;;;;;;;32.00;18.43;;;0.80;99.90;;;;;;5093946;28;20960;-84
2021/12/07 09:21:40;;;;;;;30.83;15.80;;;0.90;99.90;;;;;;5094089;28;20193;-84
2021/12/07 09:24:06;;;;;;;21.50;13.70;;;0.90;99.90;;;;;;5092350;28;20263;-84
2021/12/07 09:26:32;;;;;;;26.23;14.50;;;0.90;99.90;;;;;;5093614;28;21072;-84
2021/12/07 09:28:58;;;;;;;27.47;16.20;;;0.90;99.90;;;;;;5092617;28;20176;-84
2021/12/07 09:31:25;;;;;;;35.60;16.60;;;0.90;99.90;;;;;;5093798;28;20909;-84
2021/12/07 09:33:51;;;;;;;26.33;14.80;;;0.60;99.90;;;;;;5093763;28;20417;-84
2021/12/07 09:36:17;;;;;;;30.67;17.80;;;1.00;99.90;;;;;;5092335;28;20484;-84
2021/12/07 09:38:43;;;;;;;31.77;18.50;;;0.90;99.90;;;;;;5091751;28;20524;-84
2021/12/07 09:41:11;;;;;;;30.23;15.27;;;0.90;99.90;;;;;;5092400;28;20532;-85
2021/12/07 09:43:37;;;;;;;27.80;15.00;;;1.00;99.90;;;;;;5092470;28;20800;-84
2021/12/07 09:46:05;;;;;;;26.83;14.90;;;1.00;99.90;;;;;;5093653;28;20476;-84
2021/12/07 09:48:31;;;;;;;22.53;14.23;;;1.00;99.90;;;;;;5093782;28;20432;-84
2021/12/07 09:50:57;;;;;;;26.77;16.63;;;1.00;99.90;;;;;;5093570;28;20838;-84
2021/12/07 09:53:24;;;;;;;27.57;16.10;;;1.00;99.90;;;;;;5092883;28;20192;-85
2021/12/07 09:55:50;;;;;;;30.80;17.10;;;1.00;99.90;;;;;;5092520;28;20493;-85
2021/12/07 09:58:17;;;;;;;27.17;16.60;;;1.00;99.90;;;;;;5093601;28;20416;-84
2021/12/07 10:00:45;;;;;;;26.60;15.80;;;1.00;99.90;;;;;;5092167;28;20410;-86
2021/12/07 10:03:12;;;;;;;27.90;16.70;;;1.00;99.90;;;;;;5093749;28;20409;-84
2021/12/07 10:05:40;;;;;;;22.43;15.07;;;1.00;99.90;;;;;;5092230;28;20414;-84
2021/12/07 10:08:07;;;;;;;32.90;17.33;;;1.00;99.90;;;;;;5090835;28;20434;-85
2021/12/07 10:10:37;;;;;;;23.70;15.43;;;1.10;99.90;;;;;;5093413;28;20410;-84
2021/12/07 10:13:05;;;;;;;21.63;13.30;;;1.10;99.90;;;;;;5091980;28;20446;-84
2021/12/07 10:15:31;;;;;;;31.37;18.53;;;1.10;99.90;;;;;;5093190;28;20402;-84
2021/12/07 10:18:09;;;;;;;31.43;16.00;;;1.10;99.90;;;;;;5093058;28;20414;-87
2021/12/07 10:20:41;;;;;;;35.03;16.60;;;1.20;99.90;;;;;;5091419;28;20461;-87
2021/12/07 10:23:16;;;;;;;31.77;17.00;;;1.20;99.90;;;;;;5091613;28;20411;-89
2021/12/07 10:25:52;;;;;;;29.77;16.30;;;1.10;99.90;;;;;;5091281;28;20573;-86
2021/12/07 10:28:39;;;;;;;27.93;15.30;;;1.20;99.90;;;;;;5092392;28;20506;-87
2021/12/07 10:31:10;;;;;;;30.37;17.40;;;1.20;99.90;;;;;;5092743;28;20401;-86
2021/12/07 10:33:42;;;;;;;23.93;14.53;;;1.20;99.90;;;;;;5090788;28;20851;-86
2021/12/07 10:36:20;;;;;;;32.63;15.30;;;1.20;99.90;;;;;;5092214;28;20413;-87
2021/12/07 10:38:49;;;;;;;26.07;13.57;;;1.20;99.90;;;;;;5091886;28;21348;-85
2021/12/07 10:41:21;;;;;;;30.57;15.23;;;1.30;99.90;;;;;;5091824;28;20407;-86
2021/12/07 10:43:52;;;;;;;27.57;15.23;;;1.30;99.90;;;;;;5092509;28;20505;-86
2021/12/07 10:46:44;;;;;;;33.87;14.77;;;0.90;99.90;;;;;;5092604;28;20457;-88
2021/12/07 10:49:25;;;;;;;24.77;13.53;;;1.40;99.90;;;;;;5091185;28;20930;-86
2021/12/07 10:52:11;;;;;;;25.40;17.87;;;1.40;99.90;;;;;;5090678;28;20451;-86
2021/12/07 10:54:46;;;;;;;30.60;15.90;;;1.40;99.90;;;;;;5090975;28;20480;-89
2021/12/07 10:57:19;;;;;;;20.07;13.80;;;1.50;99.90;;;;;;5092813;28;20408;-88
2021/12/07 10:59:53;;;;;;;23.20;14.43;;;1.60;99.90;;;;;;5091010;28;20426;-85
2021/12/07 11:02:19;;;;;;;27.43;16.17;;;1.50;99.90;;;;;;5092409;28;20409;-87
2021/12/07 11:04:47;;;;;;;26.10;15.30;;;1.50;99.90;;;;;;5092282;28;20884;-87
2021/12/07 11:07:22;;;;;;;31.77;15.40;;;1.60;99.90;;;;;;5099031;28;20905;-89
2021/12/07 11:10:16;;;;;;;24.43;13.83;;;1.50;99.90;;;;;;5072318;28;20812;-84
2021/12/07 11:13:00;;;;;;;24.00;15.10;;;1.50;99.90;;;;;;5081297;28;20755;-84
2021/12/07 11:15:29;;;;;;;29.10;17.20;;;1.40;99.90;;;;;;5092494;28;20424;-84
2021/12/07 11:18:02;;;;;;;33.30;17.27;;;1.50;99.90;;;;;;5082175;28;20495;-84
2021/12/07 11:20:30;;;;;;;27.20;16.27;;;1.50;99.90;;;;;;5076030;28;20414;-84
2021/12/07 11:22:59;;;;;;;25.87;14.77;;;1.60;99.90;;;;;;5074176;28;20472;-84
2021/12/07 11:31:35;;;;;;;32.53;16.73;;;1.70;99.90;;;;;;5096168;28;20428;-84
2021/12/07 11:34:15;;;;;;;32.93;16.40;;;1.70;99.90;;;;;;5080132;28;20430;-85
2021/12/07 11:36:57;;;;;;;25.73;15.90;;;1.60;99.90;;;;;;5075990;28;20927;-84
2021/12/07 11:39:31;;;;;;;25.77;13.60;;;1.60;99.90;;;;;;5088214;28;20478;-85
2021/12/07 11:42:02;;;;;;;27.43;13.67;;;1.70;99.90;;;;;;5083061;28;20407;-84
2021/12/07 11:44:29;;;;;;;28.70;15.83;;;1.60;99.90;;;;;;5075790;28;20772;-83
2021/12/07 11:46:57;;;;;;;30.43;16.97;;;1.60;99.90;;;;;;5074648;28;20909;-87
2021/12/07 11:49:25;;;;;;;27.37;15.60;;;1.60;99.90;;;;;;5076190;28;20419;-87
2021/12/07 11:51:54;;;;;;;22.53;14.10;;;1.60;99.90;;;;;;5074362;28;20433;-86
2021/12/07 11:54:24;;;;;;;20.23;14.67;;;1.70;99.90;;;;;;5075885;28;20926;-86
2021/12/07 11:56:50;;;;;;;24.30;14.07;;;1.60;99.90;;;;;;5076212;28;20840;-87
2021/12/07 11:59:16;;;;;;;27.00;15.03;;;1.70;99.90;;;;;;5075987;28;20506;-88
2021/12/07 12:01:47;;;;;;;30.50;15.33;;;1.60;99.90;;;;;;5076951;28;20425;-93
2021/12/07 12:04:14;;;;;;;27.50;15.83;;;1.70;99.90;;;;;;5076636;28;20406;-91
2021/12/07 12:06:42;;;;;;;28.83;16.27;;;1.70;99.90;;;;;;5083822;28;20477;-91
2021/12/07 12:09:09;;;;;;;24.90;16.53;;;1.90;99.90;;;;;;5087241;28;20767;-91
2021/12/07 12:11:50;;;;;;;23.33;15.07;;;1.90;99.90;;;;;;5095902;28;20422;-93
2021/12/07 12:14:41;;;;;;;26.40;15.73;;;1.70;99.90;;;;;;5101293;28;20413;-91
2021/12/07 12:17:36;;;;;;;29.83;16.60;;;1.80;99.90;;;;;;5110701;28;20422;-92
2021/12/07 12:20:11;;;;;;;27.40;14.30;;;1.70;99.90;;;;;;5095409;28;20429;-86
2021/12/07 12:22:48;;;;;;;20.37;13.80;;;1.70;99.90;;;;;;5108135;28;20428;-86
2021/12/07 12:25:19;;;;;;;29.17;15.57;;;1.60;99.90;;;;;;5114448;28;20418;-87
2021/12/07 12:27:49;;;;;;;28.80;16.10;;;1.70;99.90;;;;;;5115309;28;20526;-80
2021/12/07 12:30:30;;;;;;;27.33;15.57;;;1.70;99.90;;;;;;5113978;28;20758;-83
2021/12/07 12:32:59;;;;;;;28.60;15.07;;;1.80;99.90;;;;;;5115044;28;20418;-81
2021/12/07 12:35:40;;;;;;;25.23;16.20;;;1.70;99.90;;;;;;5114132;27;20961;-81
2021/12/07 12:38:14;;;;;;;23.20;14.27;;;1.70;99.90;;;;;;5113495;28;20460;-81
2021/12/07 12:40:40;;;;;;;30.80;16.20;;;1.70;99.90;;;;;;5115041;28;20420;-81
2021/12/07 12:43:06;;;;;;;24.80;16.40;;;1.70;99.90;;;;;;5113837;28;20439;-82
2021/12/07 12:45:36;;;;;;;31.23;15.37;;;1.80;99.90;;;;;;5113657;28;20167;-81
2021/12/07 12:48:08;;;;;;;26.60;15.90;;;1.80;99.90;;;;;;5113686;28;20244;-81
2021/12/07 12:50:49;;;;;;;26.73;15.50;;;1.80;99.90;;;;;;5113639;28;20466;-82
2021/12/07 12:53:21;;;;;;;27.43;16.33;;;1.80;99.90;;;;;;5114862;28;20505;-79
2021/12/07 12:55:55;;;;;;;24.07;13.67;;;1.80;99.90;;;;;;5115002;28;20413;-80
2021/12/07 12:58:34;;;;;;;26.20;15.57;;;1.80;99.90;;;;;;5114975;28;20491;-81
2021/12/07 13:01:24;;;;;;;30.80;16.60;;;1.80;99.90;;;;;;5114933;28;20397;-80
2021/12/07 13:04:02;;;;;;;24.83;15.40;;;1.80;99.90;;;;;;5114861;28;20755;-80
2021/12/07 13:06:34;;;;;;;32.77;16.20;;;1.80;99.90;;;;;;5114568;28;20457;-80
2021/12/07 13:09:05;;;;;;;27.63;17.37;;;1.80;99.90;;;;;;5114583;28;20409;-80
2021/12/07 13:11:34;;;;;;;23.20;13.53;;;1.80;99.90;;;;;;5114288;28;20546;-79
2021/12/07 13:14:00;;;;;;;31.20;15.70;;;1.80;99.90;;;;;;5114250;28;20436;-81
2021/12/07 13:16:26;;;;;;;28.60;15.17;;;1.80;99.90;;;;;;5112721;28;20536;-79
2021/12/07 13:19:02;;;;;;;26.80;15.90;;;1.80;99.90;;;;;;5113112;28;20851;-79
2021/12/07 13:21:31;;;;;;;32.97;17.03;;;1.80;99.90;;;;;;5114016;28;20189;-79
2021/12/07 13:24:02;;;;;;;23.97;13.87;;;1.80;99.90;;;;;;5112710;28;20492;-79
2021/12/07 13:26:41;;;;;;;22.53;14.13;;;1.80;99.90;;;;;;5113205;28;20455;-79
2021/12/07 13:29:22;;;;;;;24.90;14.23;;;1.80;99.90;;;;;;5114409;28;20513;-80
2021/12/07 13:32:03;;;;;;;28.07;14.17;;;1.90;99.90;;;;;;5114353;28;20795;-79
2021/12/07 13:34:32;;;;;;;21.93;14.47;;;1.80;99.90;;;;;;5114364;28;20429;-79
2021/12/07 13:37:02;;;;;;;30.33;16.57;;;1.80;99.90;;;;;;5113749;28;20747;-79
2021/12/07 13:39:52;;;;;;;31.67;17.07;;;1.80;99.90;;;;;;5113786;28;20552;-79
2021/12/07 13:42:17;;;;;;;32.17;16.00;;;1.80;99.90;;;;;;5114116;28;20799;-79
2021/12/07 13:44:48;;;;;;;25.60;15.90;;;1.80;99.90;;;;;;5114218;28;20416;-80
2021/12/07 13:47:19;;;;;;;25.17;15.63;;;1.80;99.90;;;;;;5113932;28;20199;-79
2021/12/07 13:49:48;;;;;;;26.07;13.33;;;1.80;99.90;;;;;;5113879;27;20413;-79
2021/12/07 13:52:18;;;;;;;26.50;16.13;;;1.80;99.90;;;;;;5113492;28;20767;-79
2021/12/07 13:54:47;;;;;;;30.80;17.87;;;1.70;99.90;;;;;;5114212;28;20507;-80
2021/12/07 13:57:19;;;;;;;28.90;16.13;;;1.80;99.90;;;;;;5112625;28;20421;-80
2021/12/07 14:00:09;;;;;;;26.90;16.43;;;1.70;99.90;;;;;;5114046;28;20408;-81
2021/12/07 14:02:36;;;;;;;22.07;16.37;;;1.80;99.90;;;;;;5113974;28;20975;-82
2021/12/07 14:05:34;;;;;;;24.67;15.23;;;1.80;99.90;;;;;;5113728;28;20408;-80
2021/12/07 14:08:04;;;;;;;24.20;14.50;;;1.70;99.90;;;;;;5109415;28;20492;-81
2021/12/07 14:10:48;;;;;;;25.57;15.93;;;1.80;99.90;;;;;;5113604;28;20463;-81
2021/12/07 14:13:16;;;;;;;28.80;16.93;;;1.80;99.90;;;;;;5113592;28;20429;-82
2021/12/07 14:15:46;;;;;;;27.87;17.90;;;1.70;99.90;;;;;;5112097;28;20405;-80
2021/12/07 14:18:16;;;;;;;31.77;17.47;;;1.70;99.90;;;;;;5093195;28;20405;-81
2021/12/07 14:20:48;;;;;;;29.20;17.83;;;1.70;99.90;;;;;;5091974;28;20851;-81
2021/12/07 14:23:30;;;;;;;31.67;19.00;;;1.70;99.90;;;;;;5092915;28;20476;-82
2021/12/07 14:26:14;;;;;;;28.27;14.80;;;1.70;99.90;;;;;;5093157;28;20591;-82
2021/12/07 14:28:46;;;;;;;26.17;14.77;;;1.70;99.90;;;;;;5093202;28;20422;-82
2021/12/07 14:31:33;;;;;;;25.93;15.17;;;1.70;99.90;;;;;;5093205;28;20770;-79
2021/12/07 14:34:02;;;;;;;24.07;14.20;;;1.70;99.90;;;;;;5091725;28;20415;-82
2021/12/07 14:36:29;;;;;;;30.80;17.30;;;1.70;99.90;;;;;;5093056;28;20471;-83
2021/12/07 14:38:59;;;;;;;27.93;14.33;;;1.70;99.90;;;;;;5092548;28;20465;-82